Uba, Brazil
Current Conditions -  °F | °C
As of 9:00 AM on Thursday 23 Oct 2014 (Local Time) from SBBH Reporting Station
Broken Clouds Broken Clouds  
Wind Chill: 68°   Ceiling: 2000
Heat Index: 68°   Visibility: 6mi
Dew Point: 59°   Wind: 13mph
Humidity: 73%   Direction: 110°ESE
Pressure: 30.21"   Gusts: NA
Location:  21.12°S, 42.95°W
Report Text: SBBH 231100Z 11011KT 9999 BKN020 20/15 Q1023
Loading
Personal Weather Stations






























Interactive Weather Map
Tropical Storm Tracking
New forecast layout! Learn more

10-Day Weather Forecast

Advertisements
Track Severe Weather on mobile